Arklow Vale — PCZV — position and weather

sailwx.info

Track history (hours):
 
Tides and Currents Weather Stations Pressure Air Temp Water Temp Dewpoint Dewpoint Depression Visibility Wind Speed Wind Dir Waves Ship Positions

Arklow Vale

Last reported at 2018-Jun-24 07:56 UTC. Time now 2018-Jun-24 20:42 UTC.
Position N 43°48' W 008°27'.

Length 87 m; draft 5.5 m.

Type: Cargo ship. MMSI: 244750645.

Date/timePositionNaut miles runAvg speedWind from/ knotsBaromVisibWave heightAir tempDewpointWater temp
2018-Jun-24 07:56N 43°48' W 008°27'44010.1
2018-Jun-22 12:13N 50°60' W 010°29'410.5
2018-Jun-22 11:48N 51°04' W 010°31'311.1
2018-Jun-22 11:30N 51°07' W 010°33'5 9.8
2018-Jun-22 10:58N 51°12' W 010°30'611.9
2018-Jun-22 10:29N 51°18' W 010°32'712.0
2018-Jun-22 09:55N 51°24' W 010°33'612.0
2018-Jun-22 09:24N 51°31' W 010°35'1610.4
2018-Jun-22 07:49N 51°47' W 010°40'611.8
2018-Jun-22 07:20N 51°52' W 010°42'611.8
2018-Jun-22 06:48N 51°58' W 010°44'611.4
2018-Jun-22 06:18N 52°04' W 010°43'412.0
2018-Jun-22 05:58N 52°07' W 010°39'612.2
2018-Jun-22 05:29N 52°12' W 010°33'612.3
2018-Jun-22 04:58N 52°17' W 010°27'612.4
2018-Jun-22 04:29N 52°22' W 010°21'812.2
2018-Jun-22 03:51N 52°28' W 010°13'612.0
2018-Jun-22 03:20N 52°32' W 010°06'412.0
2018-Jun-22 03:00N 52°36' W 010°02'612.1
2018-Jun-22 02:29N 52°41' W 009°56'2212.0
2018-Jun-22 00:38N 52°58' W 009°33'14 0.3
2018-Jun-20 06:42N 53°09' W 009°19'9 7.6
2018-Jun-20 05:34N 53°02' W 009°27'4 8.0
2018-Jun-20 05:02N 52°58' W 009°31'210.4
2018-Jun-20 04:51N 52°56' W 009°32'17 9.6
2018-Jun-20 03:03N 52°42' W 009°49'1 9.6
2018-Jun-20 02:59N 52°42' W 009°49'5 9.7
2018-Jun-20 02:29N 52°38' W 009°54'6 9.3
2018-Jun-20 01:53N 52°32' W 009°56'410.1
2018-Jun-20 01:29N 52°33' W 009°49'611.4
2018-Jun-20 00:56N 52°35' W 009°40'  
Track history (hours):
 
Tides and Currents Weather Stations Pressure Air Temp Water Temp Dewpoint Dewpoint Depression Visibility Wind Speed Wind Dir Waves Ship Positions

Arklow Vale

Last reported at 2018-Jun-24 07:56 UTC. Time now 2018-Jun-24 20:42 UTC.
Position N 43°48' W 008°27'.

Length 87 m; draft 5.5 m.

Type: Cargo ship. MMSI: 244750645.

Date/timePositionNaut miles runAvg speedWind from/ knotsBaromVisibWave heightAir tempDewpointWater temp
2018-Jun-24 07:56N 43°48' W 008°27'44010.1
2018-Jun-22 12:13N 50°60' W 010°29'410.5
2018-Jun-22 11:48N 51°04' W 010°31'311.1
2018-Jun-22 11:30N 51°07' W 010°33'5 9.8
2018-Jun-22 10:58N 51°12' W 010°30'611.9
2018-Jun-22 10:29N 51°18' W 010°32'712.0
2018-Jun-22 09:55N 51°24' W 010°33'612.0
2018-Jun-22 09:24N 51°31' W 010°35'1610.4
2018-Jun-22 07:49N 51°47' W 010°40'611.8
2018-Jun-22 07:20N 51°52' W 010°42'611.8
2018-Jun-22 06:48N 51°58' W 010°44'611.4
2018-Jun-22 06:18N 52°04' W 010°43'412.0
2018-Jun-22 05:58N 52°07' W 010°39'612.2
2018-Jun-22 05:29N 52°12' W 010°33'612.3
2018-Jun-22 04:58N 52°17' W 010°27'612.4
2018-Jun-22 04:29N 52°22' W 010°21'812.2
2018-Jun-22 03:51N 52°28' W 010°13'612.0
2018-Jun-22 03:20N 52°32' W 010°06'412.0
2018-Jun-22 03:00N 52°36' W 010°02'612.1
2018-Jun-22 02:29N 52°41' W 009°56'2212.0
2018-Jun-22 00:38N 52°58' W 009°33'14 0.3
2018-Jun-20 06:42N 53°09' W 009°19'9 7.6
2018-Jun-20 05:34N 53°02' W 009°27'4 8.0
2018-Jun-20 05:02N 52°58' W 009°31'210.4
2018-Jun-20 04:51N 52°56' W 009°32'17 9.6
2018-Jun-20 03:03N 52°42' W 009°49'1 9.6
2018-Jun-20 02:59N 52°42' W 009°49'5 9.7
2018-Jun-20 02:29N 52°38' W 009°54'6 9.3
2018-Jun-20 01:53N 52°32' W 009°56'410.1
2018-Jun-20 01:29N 52°33' W 009°49'611.4
2018-Jun-20 00:56N 52°35' W 009°40'  

Dump ship's entire track history